createdAt,value
2023-04-30T08:43:45.516Z,1011.78
2023-04-30T08:44:44.133Z,1011.78
2023-04-30T08:45:44.134Z,1011.78
2023-04-30T08:46:43.973Z,1011.76
2023-04-30T08:47:43.993Z,1011.78
2023-04-30T08:48:43.930Z,1011.77
2023-04-30T08:51:09.953Z,1011.78
2023-04-30T08:51:20.427Z,1011.75
2023-04-30T08:54:31.247Z,1011.71
2023-04-30T08:55:32.320Z,1011.73
2023-04-30T08:56:32.267Z,1011.72
2023-04-30T08:57:32.205Z,1011.75
2023-04-30T08:58:32.216Z,1011.72
2023-04-30T08:59:32.184Z,1011.74
2023-04-30T09:00:32.194Z,1011.73
2023-04-30T09:01:32.222Z,1011.73
2023-04-30T09:02:33.006Z,1011.70
2023-04-30T09:03:32.252Z,1011.73
2023-04-30T09:04:32.193Z,1011.72
2023-04-30T09:05:32.146Z,1011.74
2023-04-30T09:06:32.230Z,1011.74
2023-04-30T09:07:32.132Z,1011.74
2023-04-30T09:08:32.202Z,1011.71
2023-04-30T09:09:32.123Z,1011.70
2023-04-30T09:10:32.084Z,1011.72
2023-04-30T09:11:32.105Z,1011.77
2023-04-30T09:12:32.061Z,1011.77
2023-04-30T09:13:32.070Z,1011.79
2023-04-30T09:14:32.016Z,1011.79
2023-04-30T09:15:32.047Z,1011.80
2023-04-30T09:16:32.133Z,1011.80
2023-04-30T09:17:32.044Z,1011.78
2023-04-30T09:18:31.998Z,1011.79
2023-04-30T09:19:31.974Z,1011.75
2023-04-30T09:20:32.008Z,1011.78
2023-04-30T09:21:31.974Z,1011.80
2023-04-30T09:22:31.962Z,1011.83
2023-04-30T09:23:31.925Z,1011.82
2023-04-30T09:24:31.930Z,1011.81
2023-04-30T09:25:31.923Z,1011.82
2023-04-30T09:26:31.950Z,1011.82
2023-04-30T09:27:31.995Z,1011.80
2023-04-30T09:28:34.006Z,1011.76
2023-04-30T09:29:31.869Z,1011.75
2023-04-30T09:30:31.855Z,1011.73
2023-04-30T09:31:31.896Z,1011.73
2023-04-30T09:32:31.895Z,1011.72
2023-04-30T09:33:32.041Z,1011.71
2023-04-30T09:34:31.938Z,1011.72
2023-04-30T09:35:31.856Z,1011.73
2023-04-30T09:36:31.831Z,1011.73
2023-04-30T09:37:31.813Z,1011.71
2023-04-30T09:38:31.832Z,1011.70
2023-04-30T09:39:32.104Z,1011.72
2023-04-30T09:40:32.847Z,1011.67
2023-04-30T09:41:31.758Z,1011.66
2023-04-30T09:42:31.755Z,1011.65
2023-04-30T09:43:31.732Z,1011.63
2023-04-30T09:44:31.718Z,1011.64
2023-04-30T09:45:33.074Z,1011.68
2023-04-30T09:46:31.742Z,1011.65
2023-04-30T09:47:31.785Z,1011.66
2023-04-30T09:48:31.760Z,1011.65
2023-04-30T09:49:31.672Z,1011.67
2023-04-30T09:50:31.649Z,1011.65
2023-04-30T09:51:31.673Z,1011.64
2023-04-30T09:52:31.629Z,1011.66
2023-04-30T09:53:31.681Z,1011.64
2023-04-30T09:54:31.606Z,1011.63
2023-04-30T09:55:31.655Z,1011.62
2023-04-30T09:56:32.088Z,1011.60
2023-04-30T09:57:31.558Z,1011.61
2023-04-30T09:58:31.589Z,1011.59
2023-04-30T09:59:31.545Z,1011.59
2023-04-30T10:00:31.620Z,1011.58
2023-04-30T10:01:31.557Z,1011.58
2023-04-30T10:02:31.566Z,1011.56
2023-04-30T10:03:31.587Z,1011.55
2023-04-30T10:04:31.521Z,1011.54
2023-04-30T10:05:31.540Z,1011.54
2023-04-30T10:06:31.585Z,1011.49
2023-04-30T10:07:31.454Z,1011.49
2023-04-30T10:08:31.577Z,1011.51
2023-04-30T10:09:31.458Z,1011.46
2023-04-30T10:10:31.466Z,1011.46
2023-04-30T10:11:31.456Z,1011.45
2023-04-30T10:12:37.924Z,1011.43
2023-04-30T10:13:31.413Z,1011.44
2023-04-30T10:14:31.392Z,1011.43
2023-04-30T10:15:31.382Z,1011.42
2023-04-30T10:16:31.536Z,1011.44
2023-04-30T10:17:31.392Z,1011.41
2023-04-30T10:18:31.409Z,1011.40
2023-04-30T10:19:31.340Z,1011.36
2023-04-30T10:20:31.316Z,1011.38
2023-04-30T10:21:31.380Z,1011.33
2023-04-30T10:22:31.362Z,1011.33
2023-04-30T10:23:31.314Z,1011.39
2023-04-30T10:24:31.306Z,1011.34
2023-04-30T10:25:31.288Z,1011.37
2023-04-30T10:26:31.298Z,1011.34
2023-04-30T10:27:31.306Z,1011.35
2023-04-30T10:28:31.292Z,1011.33
2023-04-30T10:29:31.229Z,1011.31
2023-04-30T10:30:31.416Z,1011.31
2023-04-30T10:31:31.273Z,1011.30
2023-04-30T10:32:31.273Z,1011.30
2023-04-30T10:33:31.220Z,1011.29
2023-04-30T10:34:31.177Z,1011.28
2023-04-30T10:35:31.235Z,1011.27
2023-04-30T10:36:31.759Z,1011.27
2023-04-30T10:37:31.191Z,1011.25
2023-04-30T10:38:31.147Z,1011.21
2023-04-30T10:39:31.168Z,1011.23
2023-04-30T10:40:31.280Z,1011.21
2023-04-30T10:41:31.237Z,1011.22
2023-04-30T10:42:31.139Z,1011.19
2023-04-30T10:43:37.598Z,1011.17
2023-04-30T10:44:37.740Z,1011.18
2023-04-30T10:45:31.122Z,1011.17
2023-04-30T10:46:31.148Z,1011.14
2023-04-30T10:47:31.146Z,1011.11
2023-04-30T10:48:31.024Z,1011.12
2023-04-30T10:49:31.024Z,1011.08
2023-04-30T10:50:31.104Z,1011.05
2023-04-30T10:51:31.031Z,1011.06
2023-04-30T10:52:31.019Z,1011.01
2023-04-30T10:53:30.973Z,1011.04
2023-04-30T10:54:30.988Z,1011.00
2023-04-30T10:55:31.062Z,1010.96
2023-04-30T10:56:31.012Z,1010.97
2023-04-30T10:57:30.983Z,1010.94
2023-04-30T10:58:30.955Z,1010.96
2023-04-30T10:59:30.926Z,1010.95
2023-04-30T11:00:31.005Z,1010.94
2023-04-30T11:01:31.018Z,1010.95
2023-04-30T11:02:30.909Z,1010.91
2023-04-30T11:03:30.869Z,1010.90
2023-04-30T11:04:30.888Z,1010.89
2023-04-30T11:05:30.847Z,1010.87
2023-04-30T11:06:30.919Z,1010.87
2023-04-30T11:07:31.697Z,1010.84
2023-04-30T11:08:30.855Z,1010.83
2023-04-30T11:09:30.805Z,1010.80
2023-04-30T11:10:30.832Z,1010.78
2023-04-30T11:11:30.846Z,1010.80
2023-04-30T11:12:30.799Z,1010.83
2023-04-30T11:13:30.766Z,1010.81
2023-04-30T11:14:31.158Z,1010.80
2023-04-30T11:15:31.305Z,1010.80
2023-04-30T11:16:30.859Z,1010.80
2023-04-30T11:17:30.802Z,1010.78
2023-04-30T11:18:30.962Z,1010.76
2023-04-30T11:19:30.831Z,1010.74
2023-04-30T11:20:30.920Z,1010.74
2023-04-30T11:21:30.794Z,1010.73
2023-04-30T11:22:30.799Z,1010.72
2023-04-30T11:23:39.325Z,1010.71
2023-04-30T11:24:30.658Z,1010.72
2023-04-30T11:25:30.757Z,1010.70
2023-04-30T11:26:30.662Z,1010.69
2023-04-30T11:27:30.616Z,1010.70
2023-04-30T11:28:30.607Z,1010.67
2023-04-30T11:29:30.640Z,1010.65
2023-04-30T11:30:30.784Z,1010.64
2023-04-30T11:31:30.669Z,1010.63
2023-04-30T11:32:30.607Z,1010.63
2023-04-30T11:33:30.583Z,1010.62
2023-04-30T11:34:30.548Z,1010.61
2023-04-30T11:35:30.567Z,1010.62
2023-04-30T11:36:30.622Z,1010.61
2023-04-30T11:37:30.518Z,1010.61
2023-04-30T11:38:30.531Z,1010.55
2023-04-30T11:39:30.493Z,1010.56
2023-04-30T11:40:30.510Z,1010.54
2023-04-30T11:41:30.472Z,1010.53
2023-04-30T11:42:30.485Z,1010.54
2023-04-30T11:43:30.459Z,1010.56
2023-04-30T11:44:30.429Z,1010.53
2023-04-30T11:45:30.613Z,1010.51
2023-04-30T11:46:30.462Z,1010.53
2023-04-30T11:47:30.497Z,1010.54
2023-04-30T11:48:30.473Z,1010.50
2023-04-30T11:49:30.448Z,1010.52
2023-04-30T11:50:30.426Z,1010.53
2023-04-30T11:51:30.366Z,1010.51
2023-04-30T11:52:30.349Z,1010.49
2023-04-30T11:53:30.369Z,1010.48
2023-04-30T11:54:30.341Z,1010.46
2023-04-30T11:55:30.387Z,1010.44
2023-04-30T11:56:30.333Z,1010.51
2023-04-30T11:57:30.299Z,1010.43
2023-04-30T11:58:30.299Z,1010.47
2023-04-30T11:59:30.279Z,1010.44
2023-04-30T12:00:30.325Z,1010.40
2023-04-30T12:01:30.265Z,1010.45
2023-04-30T12:02:30.296Z,1010.44
2023-04-30T12:03:30.426Z,1010.44
2023-04-30T12:04:30.405Z,1010.44
2023-04-30T12:05:30.247Z,1010.42
2023-04-30T12:06:30.239Z,1010.39
2023-04-30T12:07:30.210Z,1010.38
2023-04-30T12:08:30.296Z,1010.36
2023-04-30T12:09:30.189Z,1010.36
2023-04-30T12:10:30.190Z,1010.35
2023-04-30T12:11:30.216Z,1010.34
2023-04-30T12:12:30.172Z,1010.33
2023-04-30T12:13:30.163Z,1010.30
2023-04-30T12:14:30.153Z,1010.31
2023-04-30T12:15:30.160Z,1010.30
2023-04-30T12:16:30.841Z,1010.29
2023-04-30T12:17:30.259Z,1010.30
2023-04-30T12:18:30.080Z,1010.24
2023-04-30T12:19:30.062Z,1010.26
2023-04-30T12:20:30.131Z,1010.29
2023-04-30T12:21:30.038Z,1010.25
2023-04-30T12:22:30.080Z,1010.21
2023-04-30T12:23:30.040Z,1010.22
2023-04-30T12:24:30.023Z,1010.22
2023-04-30T12:25:30.099Z,1010.22
2023-04-30T12:26:30.000Z,1010.25
2023-04-30T12:27:30.004Z,1010.21
2023-04-30T12:28:29.980Z,1010.24
2023-04-30T12:29:29.958Z,1010.27
2023-04-30T12:30:30.095Z,1010.25
2023-04-30T12:31:29.950Z,1010.21
2023-04-30T12:32:30.202Z,1010.24
2023-04-30T12:33:29.916Z,1010.23
2023-04-30T12:34:32.199Z,1010.21
2023-04-30T12:35:29.912Z,1010.19
2023-04-30T12:36:29.882Z,27672.53
2023-04-30T12:37:29.878Z,27672.53
2023-04-30T12:38:29.865Z,27672.53
2023-04-30T12:39:29.857Z,27672.53
2023-04-30T12:40:29.879Z,27672.53
2023-04-30T12:41:29.868Z,27672.53
2023-04-30T12:42:29.894Z,27672.53
2023-04-30T12:43:29.827Z,27672.53
2023-04-30T12:44:29.822Z,27672.53
2023-04-30T12:45:29.839Z,27672.53
2023-04-30T12:46:29.925Z,27672.53
2023-04-30T12:47:29.807Z,27672.53
2023-04-30T12:48:30.568Z,27672.53
2023-04-30T12:49:29.779Z,27672.53
2023-04-30T12:50:29.817Z,27672.53
2023-04-30T12:51:29.771Z,27672.53
2023-04-30T12:52:29.755Z,27672.53
2023-04-30T12:53:29.939Z,27672.53
2023-04-30T12:54:29.746Z,27672.53
2023-04-30T12:55:29.696Z,27672.53
2023-04-30T12:56:30.616Z,27672.53
2023-04-30T12:57:29.668Z,27672.53
2023-04-30T12:58:29.724Z,27672.53
2023-04-30T12:59:29.633Z,27672.53
2023-04-30T13:00:29.650Z,27672.53
2023-04-30T13:01:29.714Z,27672.53
2023-04-30T13:02:29.728Z,27672.53
2023-04-30T13:03:29.697Z,27672.53
2023-04-30T13:04:29.609Z,27672.53
2023-04-30T13:05:29.661Z,27672.53
2023-04-30T13:06:29.656Z,27672.53
2023-04-30T13:07:29.553Z,27672.53
2023-04-30T13:08:35.427Z,27672.53
2023-04-30T13:09:29.540Z,27672.53
2023-04-30T13:10:29.572Z,27672.53
2023-04-30T13:11:29.564Z,27672.53
2023-04-30T13:12:29.506Z,27672.53
2023-04-30T13:13:29.507Z,27672.53
2023-04-30T13:14:29.485Z,27672.53
2023-04-30T13:15:29.519Z,27672.53
2023-04-30T13:16:29.567Z,27672.53
2023-04-30T13:17:29.504Z,27672.53
2023-04-30T13:18:29.468Z,27672.53
2023-04-30T13:19:29.481Z,27672.53
2023-04-30T13:20:29.491Z,27672.53
2023-04-30T13:21:35.917Z,27672.53
2023-04-30T13:22:29.410Z,27672.53
2023-04-30T13:23:31.870Z,27672.53
2023-04-30T13:24:35.877Z,27672.53
2023-04-30T13:25:29.380Z,27672.53
2023-04-30T13:26:29.365Z,27672.53
2023-04-30T13:27:29.376Z,27672.53
2023-04-30T13:28:29.333Z,27672.53
2023-04-30T13:29:29.320Z,27672.53
2023-04-30T13:30:29.354Z,27672.53
2023-04-30T13:31:29.346Z,27672.53
2023-04-30T13:32:29.314Z,27672.53
2023-04-30T13:33:29.301Z,27672.53
2023-04-30T13:34:29.272Z,27672.53
2023-04-30T13:35:29.323Z,27672.53
2023-04-30T13:36:29.282Z,27672.53
2023-04-30T13:37:29.319Z,27672.53
2023-04-30T13:38:29.255Z,27672.53
2023-04-30T13:39:29.256Z,27672.53
2023-04-30T13:40:29.249Z,27672.53
2023-04-30T13:41:29.202Z,27672.53
2023-04-30T13:42:29.187Z,27672.53
2023-04-30T13:43:29.194Z,27672.53
2023-04-30T13:44:30.140Z,27672.53
2023-04-30T13:45:29.189Z,27672.53
2023-04-30T13:46:29.501Z,27672.53
2023-04-30T13:47:29.194Z,27672.53
2023-04-30T13:48:29.123Z,27672.53
2023-04-30T13:49:29.111Z,27672.53
2023-04-30T13:50:29.124Z,27672.53
2023-04-30T13:51:29.099Z,27672.53
2023-04-30T13:52:29.090Z,27672.53
2023-04-30T13:53:29.065Z,27672.53
2023-04-30T13:54:29.054Z,27672.53
2023-04-30T13:55:29.099Z,27672.53
2023-04-30T13:56:29.036Z,27672.53
2023-04-30T13:57:29.025Z,27672.53
2023-04-30T13:58:29.030Z,27672.53
2023-04-30T13:59:29.078Z,27672.53
2023-04-30T14:00:29.036Z,27672.53
2023-04-30T14:01:29.080Z,27672.53
2023-04-30T14:02:29.091Z,27672.53
2023-04-30T14:03:29.053Z,27672.53
2023-04-30T14:04:28.972Z,27672.53
2023-04-30T14:05:28.972Z,27672.53
2023-04-30T14:06:28.957Z,27672.53
2023-04-30T14:07:28.919Z,27672.53
2023-04-30T14:08:28.928Z,27672.53
2023-04-30T14:09:35.423Z,27672.53
2023-04-30T14:10:36.672Z,27672.53
2023-04-30T14:11:28.872Z,27672.53
2023-04-30T14:12:28.839Z,27672.53
2023-04-30T14:13:28.876Z,27672.53
2023-04-30T14:14:28.907Z,27672.53
2023-04-30T14:15:28.861Z,27672.53
2023-04-30T14:16:28.945Z,27672.53
2023-04-30T14:17:28.840Z,27672.53
2023-04-30T14:18:28.790Z,27672.53
2023-04-30T14:19:28.792Z,27672.53
2023-04-30T14:20:28.817Z,27672.53
2023-04-30T14:21:35.277Z,27672.53
2023-04-30T14:22:35.253Z,27672.53
2023-04-30T14:23:28.740Z,27672.53
2023-04-30T14:24:28.733Z,27672.53
2023-04-30T14:25:28.753Z,27672.53
2023-04-30T14:26:28.717Z,27672.53
2023-04-30T14:27:28.691Z,27672.53
2023-04-30T14:28:35.207Z,27672.53
2023-04-30T14:29:28.699Z,27672.53
2023-04-30T14:30:36.260Z,27672.53
2023-04-30T14:31:28.680Z,27672.53
2023-04-30T14:32:28.702Z,27672.53
2023-04-30T14:33:28.630Z,27672.53
2023-04-30T14:34:28.632Z,27672.53
2023-04-30T14:35:28.687Z,27672.53
2023-04-30T14:36:28.621Z,27672.53
2023-04-30T14:37:28.626Z,27672.53
2023-04-30T14:38:28.609Z,27672.53
2023-04-30T14:39:28.654Z,27672.53
2023-04-30T14:40:28.566Z,27672.53
2023-04-30T14:41:28.551Z,27672.53
2023-04-30T14:42:28.543Z,27672.53
2023-04-30T14:43:28.555Z,27672.53
2023-04-30T14:44:28.524Z,27672.53
2023-04-30T14:45:28.559Z,27672.53
2023-04-30T14:46:28.617Z,27672.53
2023-04-30T14:47:28.526Z,27672.53
2023-04-30T14:48:28.473Z,27672.53
2023-04-30T14:49:28.491Z,27672.53
2023-04-30T14:50:28.494Z,27672.53
2023-04-30T14:51:28.452Z,27672.53
2023-04-30T14:52:28.480Z,27672.53
2023-04-30T14:53:28.417Z,27672.53
2023-04-30T14:54:28.415Z,27672.53
2023-04-30T14:55:28.472Z,27672.53
2023-04-30T14:56:28.407Z,27672.53
2023-04-30T14:57:28.380Z,27672.53
2023-04-30T14:58:28.391Z,27672.53
2023-04-30T14:59:28.432Z,27672.53
2023-04-30T15:00:28.407Z,27672.53
2023-04-30T15:01:28.804Z,27672.53
2023-04-30T15:02:28.383Z,27672.53
2023-04-30T15:03:28.449Z,27672.53
2023-04-30T15:04:28.313Z,27672.53
2023-04-30T15:05:28.321Z,27672.53
2023-04-30T15:06:28.359Z,27672.53
2023-04-30T15:07:28.287Z,27672.53
2023-04-30T15:08:28.283Z,27672.53
2023-04-30T15:09:28.271Z,27672.53
2023-04-30T15:10:28.266Z,27672.53
2023-04-30T15:11:28.254Z,27672.53
2023-04-30T15:12:28.306Z,27672.53
2023-04-30T15:13:28.210Z,27672.53
2023-04-30T15:14:28.211Z,27672.53
2023-04-30T15:15:28.268Z,27672.53
2023-04-30T15:16:28.237Z,27672.53
2023-04-30T15:17:28.238Z,27672.53
2023-04-30T15:18:28.176Z,27672.53
2023-04-30T15:19:28.200Z,27672.53
2023-04-30T15:20:28.159Z,27672.53
2023-04-30T15:21:28.134Z,27672.53
2023-04-30T15:22:28.118Z,27672.53
2023-04-30T15:23:28.110Z,27672.53
2023-04-30T15:24:28.137Z,27672.53
2023-04-30T15:25:28.106Z,27672.53
2023-04-30T15:26:28.064Z,27672.53
2023-04-30T15:27:28.105Z,27672.53
2023-04-30T15:28:28.063Z,27672.53
2023-04-30T15:29:28.049Z,27672.53
2023-04-30T15:30:28.052Z,27672.53
2023-04-30T15:31:28.070Z,27672.53
2023-04-30T15:32:28.023Z,27672.53
2023-04-30T15:33:28.093Z,27672.53
2023-04-30T15:34:27.983Z,27672.53
2023-04-30T15:35:27.996Z,27672.53
2023-04-30T15:36:27.955Z,27672.53
2023-04-30T15:37:27.952Z,27672.53
2023-04-30T15:38:27.963Z,27672.53
2023-04-30T15:39:27.934Z,27672.53
2023-04-30T15:40:27.982Z,27672.53
2023-04-30T15:41:27.946Z,27672.53
2023-04-30T15:42:27.901Z,27672.53
2023-04-30T15:43:27.893Z,27672.53
2023-04-30T15:44:27.880Z,27672.53
2023-04-30T15:45:27.921Z,27672.53
2023-04-30T15:46:27.933Z,27672.53
2023-04-30T15:47:27.876Z,27672.53
2023-04-30T15:48:27.834Z,27672.53
2023-04-30T15:49:27.828Z,27672.53
2023-04-30T15:50:27.834Z,27672.53
2023-04-30T15:51:27.807Z,27672.53
2023-04-30T15:52:27.815Z,27672.53
2023-04-30T15:53:27.795Z,27672.53
2023-04-30T15:54:27.771Z,27672.53
2023-04-30T15:55:27.814Z,27672.53
2023-04-30T15:56:27.744Z,27672.53
2023-04-30T15:57:27.741Z,27672.53
2023-04-30T15:58:27.754Z,27672.53
2023-04-30T15:59:27.751Z,27672.53
2023-04-30T16:00:27.735Z,27672.53
2023-04-30T16:01:27.757Z,27672.53
2023-04-30T16:02:27.713Z,27672.53
2023-04-30T16:03:27.755Z,27672.53
2023-04-30T16:04:27.675Z,27672.53
2023-04-30T16:05:27.692Z,27672.53
2023-04-30T16:06:27.743Z,27672.53
2023-04-30T16:07:27.652Z,27672.53
2023-04-30T16:08:27.652Z,27672.53
2023-04-30T16:09:27.621Z,27672.53
2023-04-30T16:10:27.630Z,27672.53
2023-04-30T16:11:27.598Z,27672.53
2023-04-30T16:12:27.605Z,27672.53
2023-04-30T16:13:27.600Z,27672.53
2023-04-30T16:14:27.607Z,27672.53
2023-04-30T16:15:27.569Z,27672.53
2023-04-30T16:16:28.103Z,27672.53
2023-04-30T16:17:27.587Z,27672.53
2023-04-30T16:18:27.534Z,27672.53
2023-04-30T16:19:27.507Z,27672.53
2023-04-30T16:20:27.520Z,27672.53
2023-04-30T16:21:27.637Z,27672.53
2023-04-30T16:22:27.480Z,27672.53
2023-04-30T16:23:27.465Z,27672.53
2023-04-30T16:24:27.456Z,27672.53
2023-04-30T16:25:27.490Z,27672.53
2023-04-30T16:26:27.449Z,27672.53
2023-04-30T16:27:27.429Z,27672.53
2023-04-30T16:28:27.410Z,27672.53
2023-04-30T16:29:27.411Z,27672.53
2023-04-30T16:30:27.417Z,27672.53
2023-04-30T16:31:27.439Z,27672.53
2023-04-30T16:32:27.396Z,27672.53
2023-04-30T16:33:27.359Z,27672.53
2023-04-30T16:34:27.382Z,27672.53
2023-04-30T16:35:27.376Z,27672.53
2023-04-30T16:36:27.326Z,27672.53
2023-04-30T16:37:27.327Z,27672.53
2023-04-30T16:38:27.347Z,27672.53
2023-04-30T16:39:27.312Z,27672.53
2023-04-30T16:40:27.301Z,27672.53
2023-04-30T16:41:27.289Z,27672.53
2023-04-30T16:42:27.263Z,27672.53
2023-04-30T16:43:27.277Z,27672.53
2023-04-30T16:44:27.236Z,27672.53
2023-04-30T16:45:27.257Z,27672.53
2023-04-30T16:46:27.240Z,27672.53
2023-04-30T16:47:27.266Z,27672.53
2023-04-30T16:48:27.219Z,27672.53
2023-04-30T16:49:27.189Z,27672.53
2023-04-30T16:50:27.223Z,27672.53
2023-04-30T16:51:27.178Z,27672.53
2023-04-30T16:52:27.166Z,27672.53
2023-04-30T16:53:27.157Z,27672.53
2023-04-30T16:54:27.141Z,27672.53
2023-04-30T16:55:27.147Z,27672.53
2023-04-30T16:56:27.107Z,27672.53
2023-04-30T16:57:27.117Z,27672.53
2023-04-30T16:58:27.096Z,27672.53
2023-04-30T16:59:27.104Z,27672.53
2023-04-30T17:00:27.105Z,27672.53
2023-04-30T17:01:27.099Z,27672.53
2023-04-30T17:02:27.204Z,27672.53
2023-04-30T17:03:27.095Z,27672.53
2023-04-30T17:04:27.040Z,27672.53
2023-04-30T17:05:27.038Z,27672.53
2023-04-30T17:06:27.106Z,27672.53
2023-04-30T17:07:27.009Z,27672.53
2023-04-30T17:08:26.986Z,27672.53
2023-04-30T17:09:26.987Z,27672.53
2023-04-30T17:10:26.997Z,27672.53
2023-04-30T17:11:26.961Z,27672.53
2023-04-30T17:12:26.956Z,27672.53
2023-04-30T17:13:26.925Z,27672.53
2023-04-30T17:14:26.930Z,27672.53
2023-04-30T17:15:26.965Z,27672.53
2023-04-30T17:16:27.028Z,27672.53
2023-04-30T17:17:26.926Z,27672.53
2023-04-30T17:18:26.888Z,27672.53
2023-04-30T17:19:26.865Z,27672.53
2023-04-30T17:20:26.889Z,27672.53
2023-04-30T17:21:26.845Z,27672.53
2023-04-30T17:22:26.846Z,27672.53
2023-04-30T17:23:26.829Z,27672.53
2023-04-30T17:24:26.844Z,27672.53
2023-04-30T17:25:26.831Z,27672.53
2023-04-30T17:26:26.803Z,27672.53
2023-04-30T17:27:26.783Z,27672.53
2023-04-30T17:28:26.776Z,27672.53
2023-04-30T17:29:26.766Z,27672.53
2023-04-30T17:30:26.782Z,27672.53
2023-04-30T17:31:26.870Z,27672.53
2023-04-30T17:32:26.751Z,27672.53
2023-04-30T17:33:26.775Z,27672.53
2023-04-30T17:34:26.714Z,27672.53
2023-04-30T17:35:26.730Z,27672.53
2023-04-30T17:36:26.716Z,27672.53
2023-04-30T17:37:26.668Z,27672.53
2023-04-30T17:38:26.686Z,27672.53
2023-04-30T17:39:26.645Z,27672.53
2023-04-30T17:40:26.670Z,27672.53
2023-04-30T17:41:26.652Z,27672.53
2023-04-30T17:42:26.628Z,27672.53
2023-04-30T17:43:26.627Z,27672.53
2023-04-30T17:44:26.616Z,27672.53
2023-04-30T17:45:26.630Z,27672.53
2023-04-30T17:46:26.657Z,27672.53
2023-04-30T17:47:26.588Z,27672.53
2023-04-30T17:48:26.632Z,27672.53
2023-04-30T17:49:26.598Z,27672.53
2023-04-30T17:50:26.568Z,27672.53
2023-04-30T17:51:26.522Z,27672.53
2023-04-30T17:52:26.534Z,27672.53
2023-04-30T17:53:26.524Z,27672.53
2023-04-30T17:54:26.500Z,27672.53
2023-04-30T17:55:26.525Z,27672.53
2023-04-30T17:56:26.492Z,27672.53
2023-04-30T17:57:26.470Z,27672.53
2023-04-30T17:58:26.473Z,27672.53
2023-04-30T17:59:26.461Z,27672.53
2023-04-30T18:00:26.482Z,27672.53
2023-04-30T18:01:26.437Z,27672.53
2023-04-30T18:02:26.409Z,27672.53
2023-04-30T18:03:32.962Z,27672.53
2023-04-30T18:04:26.450Z,27672.53
2023-04-30T18:05:26.396Z,27672.53
2023-04-30T18:06:26.413Z,27672.53
2023-04-30T18:07:26.346Z,27672.53
2023-04-30T18:08:26.356Z,27672.53
2023-04-30T18:09:26.327Z,27672.53
2023-04-30T18:10:26.353Z,27672.53
2023-04-30T18:11:26.318Z,27672.53
2023-04-30T18:12:26.305Z,27672.53
2023-04-30T18:13:26.287Z,27672.53
2023-04-30T18:14:26.296Z,27672.53
2023-04-30T18:15:26.291Z,27672.53
2023-04-30T18:16:26.315Z,27672.53
2023-04-30T18:17:26.279Z,27672.53
2023-04-30T18:18:26.255Z,27672.53
2023-04-30T18:19:26.217Z,27672.53
2023-04-30T18:20:26.243Z,27672.53
2023-04-30T18:21:26.204Z,27672.53
2023-04-30T18:22:26.210Z,27672.53
2023-04-30T18:23:26.190Z,27672.53
2023-04-30T18:24:26.170Z,27672.53
2023-04-30T18:25:26.206Z,27672.53
2023-04-30T18:26:26.166Z,27672.53
2023-04-30T18:27:26.166Z,27672.53
2023-04-30T18:28:26.150Z,27672.53
2023-04-30T18:29:26.130Z,27672.53
2023-04-30T18:30:26.141Z,27672.53
2023-04-30T18:31:26.134Z,27672.53
2023-04-30T18:32:26.133Z,27672.53
2023-04-30T18:33:26.098Z,27672.53
2023-04-30T18:34:26.060Z,27672.53
2023-04-30T18:35:26.069Z,27672.53
2023-04-30T18:36:26.043Z,27672.53
2023-04-30T18:37:26.039Z,27672.53
2023-04-30T18:38:26.019Z,27672.53
2023-04-30T18:39:26.018Z,27672.53
2023-04-30T18:40:26.061Z,27672.53
2023-04-30T18:41:25.986Z,27672.53
2023-04-30T18:42:26.006Z,27672.53
2023-04-30T18:43:25.983Z,27672.53
2023-04-30T18:44:25.957Z,27672.53
2023-04-30T18:45:25.997Z,27672.53
2023-04-30T18:46:26.000Z,27672.53
2023-04-30T18:47:25.988Z,27672.53
2023-04-30T18:48:25.922Z,27672.53
2023-04-30T18:49:25.900Z,27672.53
2023-04-30T18:50:25.921Z,27672.53
2023-04-30T18:51:25.887Z,27672.53
2023-04-30T18:52:25.888Z,27672.53
2023-04-30T18:53:25.889Z,27672.53
2023-04-30T18:54:25.859Z,27672.53
2023-04-30T18:55:25.878Z,27672.53
2023-04-30T18:56:25.906Z,27672.53
2023-04-30T18:57:25.850Z,27672.53
2023-04-30T18:58:25.825Z,27672.53
2023-04-30T18:59:25.794Z,27672.53
2023-04-30T19:00:25.828Z,27672.53
2023-04-30T19:01:25.853Z,27672.53
2023-04-30T19:02:25.839Z,27672.53
2023-04-30T19:03:26.001Z,27672.53
2023-04-30T19:04:26.663Z,27672.53
2023-04-30T19:05:25.765Z,27672.53
2023-04-30T19:06:25.755Z,27672.53
2023-04-30T19:07:25.716Z,27672.53
2023-04-30T19:08:25.774Z,27672.53
2023-04-30T19:09:25.713Z,27672.53
2023-04-30T19:10:25.715Z,27672.53
2023-04-30T19:11:25.697Z,27672.53
2023-04-30T19:12:25.667Z,27672.53
2023-04-30T19:13:25.665Z,27672.53
2023-04-30T19:14:25.653Z,27672.53
2023-04-30T19:15:25.671Z,27672.53
2023-04-30T19:16:25.669Z,27672.53
2023-04-30T19:17:25.689Z,27672.53
2023-04-30T19:18:25.599Z,27672.53
2023-04-30T19:19:25.591Z,27672.53
2023-04-30T19:20:25.605Z,27672.53
2023-04-30T19:21:25.580Z,27672.53
2023-04-30T19:22:25.576Z,27672.53
2023-04-30T19:23:25.564Z,27672.53
2023-04-30T19:24:25.566Z,27672.53
2023-04-30T19:25:25.544Z,27672.53
2023-04-30T19:26:25.568Z,27672.53
2023-04-30T19:27:25.522Z,27672.53
2023-04-30T19:28:25.518Z,27672.53
2023-04-30T19:29:26.342Z,27672.53
2023-04-30T19:30:25.518Z,27672.53
2023-04-30T19:31:25.683Z,27672.53
2023-04-30T19:32:25.507Z,27672.53
2023-04-30T19:33:25.450Z,27672.53
2023-04-30T19:34:25.444Z,27672.53
2023-04-30T19:35:25.455Z,27672.53
2023-04-30T19:36:25.419Z,27672.53
2023-04-30T19:37:25.422Z,27672.53
2023-04-30T19:38:25.425Z,27672.53
2023-04-30T19:39:25.391Z,27672.53
2023-04-30T19:40:25.396Z,27672.53
2023-04-30T19:41:25.398Z,27672.53
2023-04-30T19:42:25.373Z,27672.53
2023-04-30T19:43:25.381Z,27672.53
2023-04-30T19:44:25.375Z,27672.53
2023-04-30T19:45:25.338Z,27672.53
2023-04-30T19:46:25.411Z,27672.53
2023-04-30T19:47:25.345Z,27672.53
2023-04-30T19:48:25.335Z,27672.53
2023-04-30T19:49:26.482Z,27672.53
2023-04-30T19:50:25.323Z,27672.53
2023-04-30T19:51:25.313Z,27672.53
2023-04-30T19:52:25.325Z,27672.53
2023-04-30T19:53:25.229Z,27672.53
2023-04-30T19:54:25.914Z,27672.53
2023-04-30T19:55:25.255Z,27672.53
2023-04-30T19:56:25.214Z,27672.53
2023-04-30T19:57:25.202Z,27672.53
2023-04-30T19:58:25.183Z,27672.53
2023-04-30T19:59:25.169Z,27672.53
2023-04-30T20:00:25.198Z,27672.53
2023-04-30T20:01:25.212Z,27672.53
2023-04-30T20:02:25.188Z,27672.53
2023-04-30T20:03:25.388Z,27672.53
2023-04-30T20:04:25.145Z,27672.53
2023-04-30T20:05:25.120Z,27672.53
2023-04-30T20:06:25.168Z,27672.53
2023-04-30T20:07:25.074Z,27672.53
2023-04-30T20:08:25.090Z,27672.53
2023-04-30T20:09:25.078Z,27672.53
2023-04-30T20:10:25.146Z,27672.53
2023-04-30T20:11:25.095Z,27672.53
2023-04-30T20:12:25.040Z,27672.53
2023-04-30T20:13:25.040Z,27672.53
2023-04-30T20:14:25.079Z,27672.53
2023-04-30T20:15:25.092Z,27672.53
2023-04-30T20:16:25.039Z,27672.53
2023-04-30T20:17:25.977Z,27672.53
2023-04-30T20:18:24.976Z,27672.53
2023-04-30T20:19:24.968Z,27672.53
2023-04-30T20:20:25.063Z,27672.53
2023-04-30T20:21:24.955Z,27672.53
2023-04-30T20:22:24.963Z,27672.53
2023-04-30T20:23:24.964Z,27672.53
2023-04-30T20:24:24.962Z,27672.53
2023-04-30T20:25:24.914Z,27672.53
2023-04-30T20:26:24.927Z,27672.53
2023-04-30T20:27:24.882Z,27672.53
2023-04-30T20:28:24.954Z,27672.53
2023-04-30T20:29:24.876Z,27672.53
2023-04-30T20:30:25.575Z,27672.53
2023-04-30T20:31:25.891Z,27672.53
2023-04-30T20:32:24.957Z,27672.53
2023-04-30T20:33:24.819Z,27672.53
2023-04-30T20:34:25.676Z,27672.53
2023-04-30T20:35:24.876Z,27672.53
2023-04-30T20:36:25.878Z,27672.53
2023-04-30T20:37:28.788Z,27672.53